• Join FlightAware (Why Join?)
  • Login
  • US Flag 
09:08AM EDT


 

Airport Tracker/Info


-or-


 

Live Flight TrackerFlight Track Log ✈ UAL5829 ✈ 26-May-2013 ✈ KTYS - KORD

Flight Track Log - Related Links

Times and Time Zones

All times are in EDT time to prevent confusion due to time zone crossing. See the UAL5829 flight status page for this flight to view local times or setup timezone preferences in your user account.

Time Position Orientation Groundspeed Altitude Reporting Facility
EDT Latitude Longitude Course Direction KTS MPH feet Rate Location/Type
11:49AM 35.8997 -83.9619 345° North 183 211 4,700  Level Atlanta Center
11:50AM 35.9644 -83.9772 349° North 203 234 6,400 2,100 Climbing Atlanta Center
11:51AM 35.9991 -83.9137 352° North  Level FlightAware Approximate
11:51AM 36.0311 -83.9900 351° North 227 261 8,900  Level Atlanta Center
11:52AM 36.0758 -83.9273 349° North  Level FlightAware Approximate
11:52AM 36.1000 -84.0078 348° North 241 277 10,900  Level Atlanta Center
11:53AM 36.1520 -83.9463 349° North  Level FlightAware Approximate
11:54AM 36.2273 -83.9702 345° North  Level FlightAware Approximate
11:54AM 36.1928 -84.0250 351° North 279 321 12,200  Level Indianapolis Center
11:55AM 36.3024 -83.9952 345° North  Level FlightAware Approximate
11:55AM 36.2786 -84.0453 349° North 306 352 13,400  Level Indianapolis Center
11:56AM 36.3678 -84.0656 350° North 322 371 14,900 1,260 Climbing Indianapolis Center
11:57AM 36.4583 -84.0861 350° North 330 380 16,100 1,080 Climbing Indianapolis Center
11:58AM 36.5542 -84.1081 350° North 339 390 17,200 840 Climbing Indianapolis Center
11:59AM 36.6506 -84.1303 350° North 349 402 17,900 840 Climbing Indianapolis Center
12:00PM 36.7489 -84.1539 349° North 356 410 19,000 1,080 Climbing Indianapolis Center
12:01PM 36.8475 -84.1758 350° North 357 411 20,100 1,140 Climbing Indianapolis Center
12:02PM 36.9664 -84.2031 350° North 367 422 21,400 1,140 Climbing Indianapolis Center
12:03PM 37.0683 -84.2267 350° North 370 426 22,500 1,020 Climbing Indianapolis Center
12:04PM 37.1706 -84.2514 349° North 372 428 23,600 1,020 Climbing Indianapolis Center
12:05PM 37.2731 -84.2761 349° North 372 428 24,700 1,140 Climbing Indianapolis Center
12:06PM 37.3731 -84.3031 348° North 368 423 26,000 1,200 Climbing Indianapolis Center
12:07PM 37.4672 -84.3447 341° North 358 412 27,200 1,140 Climbing Indianapolis Center
12:08PM 37.5597 -84.3831 342° North 350 403 28,400 1,140 Climbing Indianapolis Center
12:09PM 37.6511 -84.4211 342° North 344 396 29,600 1,260 Climbing Indianapolis Center
12:10PM 37.7392 -84.4589 341° North 334 384 31,000 1,440 Climbing Indianapolis Center
12:11PM 37.8406 -84.5019 341° North 327 376 32,600 1,440 Climbing Indianapolis Center
12:12PM 37.9242 -84.5392 341° North 319 367 34,000 1,260 Climbing Indianapolis Center
12:13PM 38.0064 -84.5731 342° North 311 358 35,200 960 Climbing Indianapolis Center
12:14PM 38.0864 -84.6075 341° North 303 349 36,000 360 Climbing Indianapolis Center
12:15PM 38.1714 -84.6428 342° North 316 364 36,000  Level Indianapolis Center
12:16PM 38.2622 -84.6819 341° North 339 390 36,000  Level Indianapolis Center
12:17PM 38.3567 -84.7225 341° North 355 409 36,000  Level Indianapolis Center
12:18PM 38.4514 -84.7642 341° North 359 413 36,000  Level Indianapolis Center
12:19PM 38.5486 -84.8069 341° North 364 419 36,000  Level Indianapolis Center
12:20PM 38.6469 -84.8503 341° North 366 421 36,000  Level Indianapolis Center
12:21PM 38.7431 -84.8928 341° North 366 421 36,000 -900 Level Indianapolis Center
12:22PM 38.8558 -84.9411 342° North 357 411 34,200 -1,800 Descending Indianapolis Center
12:23PM 38.9517 -84.9842 341° North 363 418 32,400 -1,860 Descending Indianapolis Center
12:24PM 39.0486 -85.0275 341° North 369 425 30,500 -1,200 Descending Indianapolis Center
12:25PM 39.1447 -85.0694 341° North 366 421 30,000 -300 Descending Indianapolis Center
12:26PM 39.2403 -85.1119 341° North 365 420 30,000  Level Indianapolis Center
12:27PM 39.3394 -85.1561 341° North 373 429 30,000  Level Indianapolis Center
12:28PM 39.4403 -85.2014 341° North 382 440 30,000  Level Indianapolis Center
12:29PM 39.5408 -85.2456 341° North 382 440 30,000 -180 Level Indianapolis Center
12:30PM 39.6600 -85.2989 341° North 380 437 29,700 -540 Descending Indianapolis Center
12:32PM 39.7589 -85.3439 341° North 379 436 29,000 -780 Descending Indianapolis Center
12:33PM 39.8583 -85.3889 341° North 380 437 28,200 -1,080 Descending Indianapolis Center
12:34PM 39.9658 -85.4375 341° North 406 467 26,900 -1,080 Descending Indianapolis Center
12:35PM 40.0756 -85.4875 341° North 417 480 26,000 -480 Descending Indianapolis Center
12:36PM 40.1836 -85.5367 341° North 415 478 26,000  Level Indianapolis Center
12:37PM 40.3086 -85.5944 341° North 403 464 26,000 -60 Level Indianapolis Center
12:38PM 40.4128 -85.6428 341° North 399 459 25,900 -360 Descending Indianapolis Center
12:38PM 40.4767 -85.6697 342° North 401 461 25,400 -900 Descending Chicago Center
12:39PM 40.5847 -85.7139 343° North 407 468 24,400 -720 Descending Chicago Center
12:40PM 40.6614 -85.8175 314° West 402 463 24,000 -900 Descending Chicago Center
12:41PM 40.7292 -85.9467 305° West 391 450 22,600 -1,020 Descending Chicago Center
12:42PM 40.7903 -86.0644 304° West 390 449 22,000 -300 Descending Chicago Center
12:43PM 40.8514 -86.1836 304° West 391 450 22,000  Level Chicago Center
12:44PM 40.9097 -86.2981 304° West 382 440 22,000  Level Chicago Center
12:45PM 40.9694 -86.4128 305° West 378 435 22,000  Level Chicago Center
12:47PM 41.0289 -86.5294 304° West 381 438 22,000 -720 Level Chicago Center
12:48PM 41.0906 -86.6486 305° West 389 448 20,600 -1,860 Descending Chicago Center
12:49PM 41.1594 -86.7842 304° West 380 437 18,200 -2,100 Descending Chicago Center
12:50PM 41.2158 -86.8961 304° West 369 425 16,400 -1,980 Descending Chicago Center
12:51PM 41.2700 -87.0067 303° West 360 414 14,200 -2,160 Descending Chicago Center
12:52PM 41.3222 -87.1103 304° West 342 394 12,000 -1,620 Descending Chicago Center
12:53PM 41.3753 -87.2103 305° West 334 384 11,000 -840 Descending Chicago Center
12:54PM 41.4603 -87.3075 319° Northwest 333 383 10,300 -540 Descending Chicago Center
12:55PM 41.5306 -87.3883 319° Northwest 337 388 10,000 -180 Descending Chicago Center
12:56PM 41.6003 -87.4669 320° Northwest 333 383 10,000  Level Chicago Center
12:57PM 41.6731 -87.5472 321° Northwest 339 390 10,000 -60 Level Chicago Center
12:58PM 41.7456 -87.6181 324° Northwest 324 373 9,900 -600 Descending Chicago Center
12:59PM 41.8122 -87.6675 331° Northwest 281 323 8,800 -1,200 Descending Chicago Center
01:00PM 41.8828 -87.7044 339° North 278 320 7,500 -960 Descending Chicago Center
01:01PM 41.9650 -87.7069 359° North 250 288 6,900 -960 Descending Chicago Center
01:02PM 42.0292 -87.6947 North 238 274 5,600 -1,200 Descending Chicago Center
01:03PM 42.0828 -87.7308 333° Northwest 237 273 4,500 -1,140 Descending Chicago Center
01:04PM 42.0914 -87.7911 281° West 205 236 3,400 -1,140 Descending Chicago Center